Pima, AZ (85543)

5:49 AM MST on July 24, 2017 (GMT -0700)
Pima | | Change Station

Elev 2848 ft 32.89 °N, 109.83 °W | Updated 1 second ago

Partly Cloudy
Partly Cloudy
70.9 °F
Feels Like 70.9 °F
N
0.0
Wind Variable Wind from South

Today
High -- | Low -- °F
--% Chance of Precip.
Yesterday
High -- | Low -- °F
Precip. -- in
Pressure 29.87 in
Visibility 10.0 miles
Clouds Clear
Dew Point 69 °F
Humidity 94%
Rainfall 0.00 in
Snow Depth Not available.
5:27 AM 7:23 PM
New Moon, 2% visible
METAR KSAD 241151Z AUTO 36005KT 10SM CLR 23/20 A3000 RMK AO2 SLP115 70099 T02280200 10239 20222 53001 $
Pressure 29.87 in
Visibility 10.0 miles
Clouds Clear
Dew Point 69 °F
Humidity 94%
Rainfall 0.00 in
Snow Depth Not available.
5:27 AM 7:23 PM
New Moon, 2% visible
METAR KSAD 241151Z AUTO 36005KT 10SM CLR 23/20 A3000 RMK AO2 SLP115 70099 T02280200 10239 20222 53001 $

Get Severe Weather Alerts

Thanks for signing up!

Be on the lookout for a verification email in your inbox.

You'll start receiving the daily forecast at 6 AM.

×

10-Day Weather Forecast

Almanac

Astronomy

Jul. 24, 2017 Rise Set
Actual Time
Civil Twilight
Nautical Twilight
Astronomical Twilight
Moon
Length of Visible Light
Length of Day
Tomorrow will be .
, % of the Moon is Illuminated

Today's Extremes

State Highs State Lows

Community

WunderPhotos

Category 6

Welcome to Category 6. This is the collective home for Weather Underground's featured writeups by Dr. Jeff Masters (right), Bob Henson (left), Chris Burt, and other regular contributors.

Nearby

Air Quality

  Air Quality AQ Index Pollutant
Not available.

Snow Depth

Station Depth Elevation

Earthquake Activity

City Distance Mag. Time & Date
Minimum magnitude displayed is 2.5.

Coastal Water Temperatures

Place Temperature

Stations

Nearby Weather Stations

Station Location Temp. Windchill Dew Point Humidity Wind Precip. Elev Updated Type
                   

Watches & Warnings

There are currently no watches in effect.